Tiempo atmosférico en la estación meteorológica de Teruel, Santa Eulalia del Campo, Teruel (1000 m.)



Fecha
DESCASC
Temp. máxima en grados centígrados (hora)
DESCASC
Temp. mínima en grados centígrados (hora)
DESCASC
Temp. media en grados centígrados
DESCASC
Racha de viento máxima en m/sg (hora)
DESCASC
Velocidad máxima media en intervalos de 10 minutos(hora)
DESCASC
Precipitaciones diarias en mm
DESCASC
Precipitaciones de 00:00 a 06:00 en mm
DESCASC
Precipitaciones de 06:00 a 12:00 en mm
DESCASC
Precipitaciones de 12:00 a 18:00 en mm
DESCASC
Precipitaciones de 18:00 a 24:00 en mm
DESCASC

Gráficas

Temp. máximas Temp. mínimas Temp. medias Precipitaciones Rachas de viento máximas Velocidades máximas media en intervalos de 10 minutos

Datos horarios

Fecha y hora oficial Temperatura (ºC) Velocidad del viento (km/h) Dirección del viento Racha (km/h) Dirección de racha Precipitación (mm) Presión (hPa) Tendencia (hPa) Humedad (%)
2020-11-23 23:00:00 0.9 0 Calma 8 Sudoeste 0 -- -- 76
2020-11-23 22:00:00 0.8 0 Calma 6 Oeste 0 -- -- 77
2020-11-23 21:00:00 3 0 Calma 8 Sudoeste 0 -- -- 67
2020-11-23 20:00:00 4.7 5 Sudoeste 13 Oeste 0 -- -- 60
2020-11-23 19:00:00 5.7 5 Noroeste 14 Noroeste 0 -- -- 58
2020-11-23 18:00:00 8.8 8 Noroeste 12 Noroeste 0 -- -- 46
2020-11-23 17:00:00 13.3 6 Norte 9 Norte 0 -- -- 35
2020-11-23 16:00:00 16 4 Este 9 Este 0 -- -- 28
2020-11-23 15:00:00 16.6 3 Sudeste 9 Sur 0 -- -- 29
2020-11-23 14:00:00 15.4 3 Sudeste 8 Sudoeste 0 -- -- 33
2020-11-23 13:00:00 14 4 Sudeste 9 Sur 0 -- -- 39
2020-11-23 12:00:00 11.3 5 Sur 10 Sur 0 -- -- 44
2020-11-23 11:00:00 6.7 7 Sudoeste 12 Sudoeste 0 -- -- 58
2020-11-23 10:00:00 2.5 8 Sur 11 Sudoeste 0 -- -- 77
2020-11-23 09:00:00 -0.9 5 Sur 9 Sur 0 -- -- 89
2020-11-23 08:00:00 -3.9 5 Sur 9 Sur 0 -- -- 94
2020-11-23 07:00:00 -4.8 0 Calma -- -- 0 -- -- 94
2020-11-23 06:00:00 -4.7 0 Calma -- -- 0 -- -- 95
2020-11-23 05:00:00 -4.3 0 Calma -- -- 0 -- -- 95
2020-11-23 04:00:00 -3.1 0 Calma -- -- 0 -- -- 93
2020-11-23 03:00:00 -3.5 0 Calma -- -- 0 -- -- 95
2020-11-23 02:00:00 -2.9 0 Calma -- -- 0 -- -- 92
2020-11-23 01:00:00 -2.2 0 Calma -- -- 0 -- -- 89
2020-11-23 00:00:00 -1.5 0 Calma -- -- 0 -- -- 90
2020-11-22 23:00:00 -1.1 0 Calma -- -- 0 -- -- 88
2020-11-22 22:00:00 1.3 0 Calma 5 Oeste 0 -- -- 79
2020-11-22 21:00:00 1.9 0 Calma 7 Noroeste 0 -- -- 78
2020-11-22 20:00:00 5.4 7 Noroeste 13 Noroeste 0 -- -- 65
2020-11-22 19:00:00 7.1 12 Noroeste 14 Noroeste 0 -- -- 60
2020-11-22 18:00:00 7.7 8 Noroeste 13 Nordeste 0 -- -- 59
2020-11-22 17:00:00 13.6 9 Nordeste 17 Norte 0 -- -- 42
2020-11-22 16:00:00 15 12 Norte 18 Norte 0 -- -- 38
2020-11-22 15:00:00 15.6 7 Norte 17 Norte 0 -- -- 33
2020-11-22 14:00:00 14.6 3 Sudoeste 8 Sudeste 0 -- -- 37
2020-11-22 13:00:00 12.5 4 Sudoeste 9 Sur 0 -- -- 44
2020-11-22 12:00:00 8.8 5 Sur 13 Sur 0 -- -- 56
2020-11-22 11:00:00 4.8 7 Sur 11 Sur 0 -- -- 70
2020-11-22 10:00:00 0.2 7 Sur 10 Sur 0 -- -- 95
2020-11-22 09:00:00 -2.5 0 Calma -- -- 0 -- -- 98
2020-11-22 08:00:00 -3.9 0 Calma -- -- 0 -- -- 98
2020-11-22 07:00:00 -3.5 0 Calma -- -- 0 -- -- 98
2020-11-22 06:00:00 -2.9 0 Calma 6 Sur 0 -- -- 98
2020-11-22 05:00:00 -2.4 3 Sur 12 Sudoeste 0 -- -- 98
2020-11-22 04:00:00 -1.4 8 Sudoeste 13 Sudoeste 0 -- -- 98
2020-11-22 03:00:00 -0.6 7 Sur 11 Sur 0 -- -- 88
2020-11-22 02:00:00 -2 4 Sudoeste 11 Sur 0 -- -- 83
2020-11-22 01:00:00 0.3 6 Sudoeste 11 Sudoeste 0 -- -- 75
2020-11-22 00:00:00 -0.2 3 Sudoeste 9 Sur 0 -- -- 80
2020-11-21 23:00:00 0.3 5 Sudoeste 8 Sudoeste 0 -- -- 83
2020-11-21 22:00:00 1.2 5 Sur 9 Sur 0 -- -- 71
2020-11-21 21:00:00 0.8 3 Sudoeste 5 Oeste 0 -- -- 73
2020-11-21 20:00:00 2.3 6 Oeste 8 Oeste 0 -- -- 65
2020-11-21 19:00:00 5.2 5 Oeste 7 Noroeste 0 -- -- 56
2020-11-21 18:00:00 6.2 4 Sudoeste 7 Sudoeste 0 -- -- 54
2020-11-21 17:00:00 12.9 6 Sur 14 Sur 0 -- -- 32
2020-11-21 16:00:00 14.6 9 Sur 17 Sur 0 -- -- 26
2020-11-21 15:00:00 14.5 9 Sur 17 Sur 0 -- -- 24
2020-11-21 14:00:00 13.8 4 Sur 9 Sudoeste 0 -- -- 27
2020-11-21 13:00:00 11.5 4 Sudoeste 11 Sur 0 -- -- 29
2020-11-21 12:00:00 9.1 6 Sur 11 Sur 0 -- -- 35
2020-11-21 11:00:00 5.2 8 Sur 13 Sudoeste 0 -- -- 55
2020-11-21 10:00:00 1.9 6 Sur 9 Sur 0 -- -- 67
2020-11-21 09:00:00 -2.5 3 Sur 7 Sur 0 -- -- 85
2020-11-21 08:00:00 -3.2 2 Sur 13 Sudoeste 0 -- -- 82
2020-11-21 07:00:00 -3.3 3 Sudeste 7 Sur 0 -- -- 86
2020-11-21 06:00:00 -4 0 Calma 9 Sur 0 -- -- 89
2020-11-21 05:00:00 -2.1 3 Sur 13 Noroeste 0 -- -- 83
2020-11-21 04:00:00 -3.3 4 Oeste 7 Oeste 0 -- -- 89
2020-11-21 03:00:00 -1.8 5 Sudeste 9 Sudeste 0 -- -- 84
2020-11-21 02:00:00 -2 0 Calma 11 Noroeste 0 -- -- 86
2020-11-21 01:00:00 -0.6 2 Oeste 6 Sudeste 0 -- -- 78
2020-11-21 00:00:00 -0.2 0 Calma 9 Sur 0 -- -- 77
2020-11-20 23:00:00 1 2 Sur 17 Norte 0 -- -- 73
2020-11-20 22:00:00 3.4 15 Norte 18 Norte 0 -- -- 63
2020-11-20 21:00:00 3.9 13 Noroeste 18 Norte 0 -- -- 61
2020-11-20 20:00:00 3.9 10 Noroeste 17 Norte 0 -- -- 61
2020-11-20 19:00:00 5.4 12 Noroeste 17 Noroeste 0 -- -- 55
2020-11-20 18:00:00 6.6 10 Norte 19 Nordeste 0 -- -- 52
2020-11-20 17:00:00 10.8 12 Norte 31 Norte 0 -- -- 39
2020-11-20 16:00:00 12.9 22 Norte 33 Norte 0 -- -- 28
2020-11-20 15:00:00 13.3 19 Norte 35 Norte 0 -- -- 27
2020-11-20 14:00:00 12.5 21 Norte 38 Norte 0 -- -- 30
2020-11-20 13:00:00 11.4 20 Nordeste 30 Nordeste 0 -- -- 40
2020-11-20 12:00:00 9.3 18 Nordeste 26 Nordeste 0 -- -- 52
2020-11-20 11:00:00 8.1 11 Norte 18 Nordeste 0 -- -- 62
2020-11-20 10:00:00 5 0 Calma 8 Norte 0 -- -- 78
2020-11-20 09:00:00 2.2 4 Norte 7 Norte 0 -- -- 92
2020-11-20 08:00:00 -0.7 0 Calma 5 Norte 0 -- -- 98
2020-11-20 07:00:00 0.1 0 Calma 8 Nordeste 0 -- -- 97
2020-11-20 06:00:00 1.5 3 Norte 11 Norte 0 -- -- 95
2020-11-20 05:00:00 2.5 11 Norte 17 Norte 0 -- -- 94
2020-11-20 04:00:00 2.7 4 Nordeste 16 Norte 0 -- -- 96
2020-11-20 03:00:00 2.9 9 Norte 18 Norte 0 -- -- 97
2020-11-20 02:00:00 3.6 10 Norte 14 Norte 0 -- -- 99
2020-11-20 01:00:00 3.9 5 Nordeste 15 Norte 0 -- -- 99
2020-11-20 00:00:00 5.3 9 Nordeste 15 Norte 0 -- -- 94
2020-11-19 23:00:00 7.3 12 Norte 24 Norte 0 -- -- 89
2020-11-19 22:00:00 7.7 14 Norte 32 Norte 0 -- -- 90
2020-11-19 21:00:00 8.5 18 Norte 31 Norte 0 -- -- 89
2020-11-19 20:00:00 10.6 15 Norte 28 Norte 0 -- -- 81
2020-11-19 19:00:00 11.2 17 Norte 27 Norte 0 -- -- 81
2020-11-19 18:00:00 11.7 10 Norte 22 Nordeste 0 -- -- 79
2020-11-19 17:00:00 14.3 14 Nordeste 31 Nordeste 0 -- -- 68
2020-11-19 16:00:00 16.5 19 Nordeste 31 Nordeste 0 -- -- 64
2020-11-19 15:00:00 17.7 17 Nordeste 29 Nordeste 0 -- -- 59
2020-11-19 14:00:00 16.8 17 Norte 31 Nordeste 0 -- -- 60
2020-11-19 13:00:00 16.2 20 Norte 35 Norte 0 -- -- 62
2020-11-19 12:00:00 15.1 23 Norte 35 Norte 0 -- -- 64
2020-11-19 11:00:00 14.2 13 Nordeste 21 Nordeste 0 -- -- 67
2020-11-19 10:00:00 9.4 6 Norte 12 Nordeste 0 -- -- 78
2020-11-19 09:00:00 4.3 0 Calma 2 Nordeste 0 -- -- 89
2020-11-19 08:00:00 1.2 0 Calma 3 Nordeste 0 -- -- 97
2020-11-19 07:00:00 1.6 0 Calma 4 Sur 0 -- -- 97
2020-11-19 06:00:00 2.7 4 Norte 6 Norte 0 -- -- 94
2020-11-19 05:00:00 2.1 0 Calma 5 Norte 0 -- -- 95
2020-11-19 04:00:00 3.4 4 Norte 5 Norte 0 -- -- 96
2020-11-19 03:00:00 2.8 0 Calma 2 Sudoeste 0 -- -- 96
2020-11-19 02:00:00 3.6 2 Sur 3 Sur 0 -- -- 95
2020-11-19 01:00:00 4.4 0 Calma 5 Norte 0 -- -- 91
2020-11-19 00:00:00 5.5 3 Norte 4 Norte 0 -- -- 89
2020-11-18 23:00:00 5.2 0 Calma 5 Noroeste 0 -- -- 88
2020-11-18 22:00:00 8.2 4 Oeste 9 Oeste 0 -- -- 76
2020-11-18 21:00:00 9.5 2 Noroeste 18 Noroeste 0 -- -- 71
2020-11-18 20:00:00 10.9 5 Norte 20 Noroeste 0 -- -- 67
2020-11-18 19:00:00 13 12 Noroeste 15 Noroeste 0 -- -- 61
2020-11-18 18:00:00 13.7 8 Noroeste 10 Oeste 0 -- -- 60
2020-11-18 17:00:00 18.3 5 Noroeste 15 Norte 0 -- -- 46
2020-11-18 16:00:00 20.6 10 Nordeste 17 Nordeste 0 -- -- 39
2020-11-18 15:00:00 20.8 9 Norte 15 Norte 0 -- -- 38
2020-11-18 14:00:00 19.9 7 Norte 11 Norte 0 -- -- 40
2020-11-18 13:00:00 19.8 0 Calma 6 Sudoeste 0 -- -- 42
2020-11-18 12:00:00 16.1 3 Sudoeste 9 Sur 0 -- -- 55
2020-11-18 11:00:00 12.3 5 Sur 10 Sur 0 -- -- 70
2020-11-18 10:00:00 8.2 7 Sur 10 Sur 0 -- -- 78
2020-11-18 09:00:00 3.9 6 Sudoeste 9 Sudoeste 0 -- -- 90
2020-11-18 08:00:00 2 5 Sur 9 Sur 0 -- -- 94
2020-11-18 07:00:00 2.1 5 Sur 8 Sur 0 -- -- 95
2020-11-18 06:00:00 2.1 5 Sur 9 Sudoeste 0 -- -- 97
2020-11-18 05:00:00 0.8 0 Calma 5 Sudoeste 0 -- -- 98
2020-11-18 04:00:00 2.1 3 Sudoeste 5 Sudoeste 0 -- -- 99
2020-11-18 03:00:00 2.2 0 Calma 4 Sudoeste 0 -- -- 97
2020-11-18 02:00:00 3.3 0 Calma 5 Sur 0 -- -- 97
2020-11-18 01:00:00 3.6 3 Sur 5 Sur 0 -- -- 94
2020-11-18 00:00:00 4.6 2 Sur 7 Sur 0 -- -- 93
2020-11-17 23:00:00 5.7 4 Sudoeste 5 Sudoeste 0 -- -- 92
2020-11-17 22:00:00 6.1 0 Calma 4 Norte 0 -- -- 91
2020-11-17 21:00:00 7.4 0 Calma 4 Sudoeste 0 -- -- 88
2020-11-17 20:00:00 8.6 5 Oeste 14 Noroeste 0 -- -- 80
2020-11-17 19:00:00 10.8 4 Sudoeste 18 Noroeste 0 -- -- 75
2020-11-17 18:00:00 12.3 4 Noroeste 8 Nordeste 0 -- -- 70
2020-11-17 17:00:00 18.4 4 Nordeste 12 Nordeste 0 -- -- 47
2020-11-17 16:00:00 19.4 6 Norte 13 Nordeste 0 -- -- 45
2020-11-17 15:00:00 19.4 3 Norte 9 Norte 0 -- -- 47
2020-11-17 14:00:00 18.2 3 Sudeste 7 Sudeste 0 -- -- 51
2020-11-17 13:00:00 17.2 0 Calma 6 Sudoeste 0 -- -- 56
2020-11-17 12:00:00 14.6 3 Sur 8 Sur 0 -- -- 65
2020-11-17 11:00:00 11.5 5 Sur 9 Sudoeste 0 -- -- 76
2020-11-17 10:00:00 7.3 7 Sudoeste 10 Sudoeste 0 -- -- 91
2020-11-17 09:00:00 2.4 5 Sur 8 Sur 0 -- -- 99
2020-11-17 08:00:00 1.3 3 Sudoeste 5 Sudoeste 0 -- -- 100
2020-11-17 07:00:00 1.3 3 Sudoeste 4 Sur 0 -- -- 99
2020-11-17 06:00:00 2.1 0 Calma 6 Oeste 0 -- -- 99
2020-11-17 05:00:00 2 0 Calma 3 Este 0 -- -- 100
2020-11-17 04:00:00 2.2 0 Calma 4 Oeste 0 -- -- 99
2020-11-17 03:00:00 3 0 Calma 8 Sur 0 -- -- 98
2020-11-17 02:00:00 4.2 5 Sur 8 Sudeste 0 -- -- 97
2020-11-17 01:00:00 4.3 4 Sudoeste 9 Sur 0 -- -- 97
2020-11-17 00:00:00 5.7 7 Oeste 9 Sudoeste 0 -- -- 96
2020-11-16 23:00:00 5.6 6 Norte 14 Noroeste 0 -- -- 96
2020-11-16 22:00:00 6.5 8 Oeste 13 Noroeste 0 -- -- 95
2020-11-16 21:00:00 8.4 8 Noroeste 16 Noroeste 0 -- -- 88
2020-11-16 20:00:00 8.6 4 Sur 12 Norte 0 -- -- 88
2020-11-16 19:00:00 9.9 6 Norte 14 Norte 0 -- -- 83
2020-11-16 18:00:00 11.5 9 Norte 26 Norte 0 -- -- 80
2020-11-16 17:00:00 13.8 17 Norte 26 Norte 0 -- -- 71
2020-11-16 16:00:00 15.7 14 Nordeste 24 Norte 0 -- -- 65
2020-11-16 15:00:00 16.2 18 Norte 28 Norte 0 -- -- 65
2020-11-16 14:00:00 15.7 11 Nordeste 17 Este 0 -- -- 69
2020-11-16 13:00:00 14.1 9 Nordeste 24 Norte 0 -- -- 75
2020-11-16 12:00:00 13.8 13 Norte 20 Norte 0 -- -- 79
2020-11-16 11:00:00 11.9 9 Norte 14 Norte 0 -- -- 91
2020-11-16 10:00:00 11.7 9 Nordeste 15 Norte 0 -- -- 93
2020-11-16 09:00:00 11 5 Norte 10 Este 0 -- -- 96
2020-11-16 08:00:00 10.5 4 Este 17 Norte 0 -- -- 97
2020-11-16 07:00:00 11.5 14 Norte 22 Noroeste 0 -- -- 87
2020-11-16 06:00:00 10.9 13 Norte 18 Noroeste 0 -- -- 89
2020-11-16 05:00:00 9.9 7 Oeste 13 Noroeste 0 -- -- 93
2020-11-16 04:00:00 10 4 Oeste 9 Sudeste 0 -- -- 91
2020-11-16 03:00:00 10.3 4 Oeste 18 Sur 0 -- -- 90
2020-11-16 02:00:00 10.4 6 Sur 10 Sudoeste 0 -- -- 91
2020-11-16 01:00:00 9.4 0 Calma 7 Sur 0 -- -- 93
2020-11-16 00:00:00 9.7 3 Norte 10 Noroeste 0 -- -- 90
2020-11-15 23:00:00 10.6 3 Este 7 Norte 0 -- -- 87
2020-11-15 22:00:00 11.7 2 Sur 6 Nordeste 0 -- -- 84
2020-11-15 21:00:00 12.8 5 Sudeste 12 Sur 0 -- -- 79
2020-11-15 20:00:00 13.9 3 Noroeste 18 Norte 0 -- -- 74
2020-11-15 19:00:00 15 12 Noroeste 22 Noroeste 0 -- -- 70
2020-11-15 18:00:00 15.5 8 Noroeste 23 Noroeste 0 -- -- 67
2020-11-15 17:00:00 15.5 9 Noroeste 41 Noroeste 0 -- -- 69
2020-11-15 16:00:00 16.2 20 Noroeste 40 Noroeste 0 -- -- 65
2020-11-15 15:00:00 17.1 18 Oeste 39 Noroeste 0 -- -- 62
2020-11-15 14:00:00 17.8 24 Noroeste 35 Noroeste 0 -- -- 59
2020-11-15 13:00:00 16.8 20 Noroeste 36 Noroeste 0 -- -- 65
2020-11-15 12:00:00 16.7 5 Sudeste 14 Sur 0 -- -- 65
2020-11-15 11:00:00 13.6 6 Sur 12 Sur 0 -- -- 79
2020-11-15 10:00:00 9.4 6 Sur 12 Sudeste 0 -- -- 100
2020-11-15 09:00:00 5 9 Sur 13 Sur 0 -- -- 100
2020-11-15 08:00:00 3.9 2 Sur 4 Este 0 -- -- 100
2020-11-15 07:00:00 4.4 2 Sudoeste 8 Sudoeste 0 -- -- 100
2020-11-15 06:00:00 5.1 5 Sur 7 Sur 0 -- -- 100
2020-11-15 05:00:00 3.8 0 Calma 6 Sudeste 0 -- -- 99
2020-11-15 04:00:00 4.1 0 Calma 12 Sudoeste 0 -- -- 97
2020-11-15 03:00:00 6.2 8 Sudoeste 11 Sur 0 -- -- 98
2020-11-15 02:00:00 7 6 Sur 9 Sur 0 -- -- 98
2020-11-15 01:00:00 7.1 4 Sur 7 Sudoeste 0 -- -- 99
2020-11-15 00:00:00 8.4 0 Calma 11 Norte 0 -- -- 99
2020-11-14 23:00:00 9.4 2 Oeste 4 Oeste 0 -- -- 99
2020-11-14 22:00:00 9.4 0 Calma 6 Sur 0 -- -- 99
2020-11-14 21:00:00 10 0 Calma 3 Sur 0 -- -- 99
2020-11-14 20:00:00 10.4 3 Sudoeste 4 Sur 0.2 -- -- 99
2020-11-14 19:00:00 10.5 4 Sur 6 Sur 0.2 -- -- 98
2020-11-14 18:00:00 11.2 3 Norte 6 Noroeste 0 -- -- 97
2020-11-14 17:00:00 11.9 4 Norte 6 Norte 0.2 -- -- 93
2020-11-14 16:00:00 12.6 3 Sur 11 Sur 0.2 -- -- 86
2020-11-14 15:00:00 12 8 Sur 17 Sur 0.2 -- -- 88
2020-11-14 14:00:00 12.6 9 Sur 14 Sur 0 -- -- 84
2020-11-14 13:00:00 11.1 7 Sur 15 Sur 0 -- -- 94
2020-11-14 12:00:00 9.6 11 Sur 16 Sur 0 -- -- 99
2020-11-14 11:00:00 8.7 6 Sur 19 Sur 0 -- -- 100
2020-11-14 10:00:00 7.6 12 Sur 19 Sur 0 -- -- 100
2020-11-14 09:00:00 6.6 12 Sur 16 Sudoeste 0 -- -- 100
2020-11-14 08:00:00 6 9 Sur 12 Sudoeste 0 -- -- 100
2020-11-14 07:00:00 6.3 5 Sudoeste 10 Sudoeste 0 -- -- 100
2020-11-14 06:00:00 6.4 6 Sudoeste 8 Sudoeste 0 -- -- 100
2020-11-14 05:00:00 6.3 5 Sudoeste 13 Sudoeste 0 -- -- 99
2020-11-14 04:00:00 6.2 6 Sudoeste 10 Sur 0 -- -- 98
2020-11-14 03:00:00 6.3 6 Sur 11 Sudeste 0 -- -- 97
2020-11-14 02:00:00 5.5 0 Calma 10 Sudoeste 0 -- -- 95
2020-11-14 01:00:00 6.1 6 Sudoeste 9 Sudoeste 0 -- -- 94
2020-11-14 00:00:00 6.5 6 Sur 8 Sur 0 -- -- 88
2020-11-13 23:00:00 7 4 Sur 11 Sudoeste 0 -- -- 82
2020-11-13 22:00:00 7.1 6 Sudoeste 17 Sudoeste 0 -- -- 83
2020-11-13 21:00:00 8.2 11 Sudoeste 15 Sudoeste 0 -- -- 84
2020-11-13 20:00:00 8.3 5 Sudoeste 10 Sudoeste 0 -- -- 83
2020-11-13 19:00:00 9.5 6 Sudoeste 12 Sudoeste 0 -- -- 80
2020-11-13 18:00:00 12.2 6 Sur 17 Sur 0 -- -- 67
2020-11-13 17:00:00 15.1 9 Sudeste 21 Sur 0 -- -- 52
2020-11-13 16:00:00 15.7 11 Sur 21 Sudeste 0 -- -- 52
2020-11-13 15:00:00 15.7 9 Sur 17 Sur 0 -- -- 54
2020-11-13 14:00:00 15.8 6 Sudeste 15 Sur 0 -- -- 53
2020-11-13 13:00:00 14.8 9 Sur 19 Sur 0 -- -- 58
2020-11-13 12:00:00 13.8 10 Sur 18 Sur 0 -- -- 63
2020-11-13 11:00:00 12.3 8 Sur 16 Sur 0 -- -- 71
2020-11-13 10:00:00 8.5 10 Sur 16 Sur 0 -- -- 87
2020-11-13 09:00:00 4.7 4 Sudoeste 9 Sudoeste 0 -- -- 96
2020-11-13 08:00:00 4.2 6 Sur 11 Sudoeste 0 -- -- 97
2020-11-13 07:00:00 4.3 7 Sudoeste 9 Sudoeste 0 -- -- 98
2020-11-13 06:00:00 4.4 7 Sur 10 Sur 0 -- -- 97
2020-11-13 05:00:00 4.6 6 Sur 10 Sur 0 -- -- 97
2020-11-13 04:00:00 4.6 3 Sur 8 Sur 0 -- -- 95
2020-11-13 03:00:00 5.1 5 Sur 11 Sudoeste 0 -- -- 94
2020-11-13 02:00:00 5.1 4 Sudoeste 9 Sudoeste 0 -- -- 94
2020-11-13 01:00:00 5.5 5 Sur 12 Sudoeste 0 -- -- 93
2020-11-13 00:00:00 5.8 5 Sur 15 Sur 0 -- -- 90
2020-11-12 23:00:00 5 4 Sur 13 Sudoeste 0 -- -- 89
2020-11-12 22:00:00 5.8 8 Sudoeste 13 Sudoeste 0 -- -- 84
2020-11-12 21:00:00 6.9 8 Sudoeste 13 Sur 0 -- -- 81
2020-11-12 20:00:00 8.9 9 Sur 18 Sur 0 -- -- 76
2020-11-12 19:00:00 9.4 7 Sudoeste 10 Sudoeste 0 -- -- 77
2020-11-12 18:00:00 11.3 4 Sudoeste 9 Sur 0 -- -- 70
2020-11-12 17:00:00 13.9 7 Sur 15 Sur 0 -- -- 57
2020-11-12 16:00:00 14.7 10 Sur 19 Sur 0 -- -- 51
2020-11-12 15:00:00 15.1 11 Sur 20 Sur 0 -- -- 47
2020-11-12 14:00:00 14.3 10 Sur 17 Sur 0 -- -- 52
2020-11-12 13:00:00 14.3 5 Sur 11 Sur 0 -- -- 51
2020-11-12 12:00:00 13.2 5 Sur 10 Sur 0 -- -- 58
2020-11-12 11:00:00 10.6 5 Sur 10 Sur 0 -- -- 68
2020-11-12 10:00:00 7.4 0 Calma 5 Sur 0 -- -- 82
2020-11-12 09:00:00 3.6 3 Sur 8 Sudoeste 0 -- -- 93
2020-11-12 08:00:00 2.9 3 Sur 6 Sur 0 -- -- 93
2020-11-12 07:00:00 2.7 2 Sur 6 Sur 0 -- -- 93
2020-11-12 06:00:00 3 4 Sur 9 Sudoeste 0 -- -- 91
2020-11-12 05:00:00 3.7 7 Sudoeste 11 Sudoeste 0 -- -- 89
2020-11-12 04:00:00 2.8 3 Sur 8 Sudoeste 0 -- -- 92
2020-11-12 03:00:00 3 4 Sur 9 Sur 0 -- -- 93
2020-11-12 02:00:00 3.7 6 Sur 10 Sudoeste 0 -- -- 93
2020-11-12 01:00:00 2.5 3 Sur 6 Sudeste 0 -- -- 92
2020-11-12 00:00:00 3.6 3 Sudoeste 8 Oeste 0 -- -- 90
2020-11-11 23:00:00 4 2 Oeste 8 Oeste 0 -- -- 88
2020-11-11 22:00:00 4.3 5 Oeste 9 Oeste 0 -- -- 88
2020-11-11 21:00:00 5.6 4 Norte 6 Noroeste 0 -- -- 82
2020-11-11 20:00:00 7.6 4 Sudoeste 6 Sudoeste 0 -- -- 78
2020-11-11 19:00:00 9.7 3 Oeste 12 Sur 0 -- -- 67
2020-11-11 18:00:00 11 7 Sudoeste 19 Sur 0 -- -- 67
2020-11-11 17:00:00 14.7 16 Sur 25 Sur 0 -- -- 55
2020-11-11 16:00:00 16.1 14 Sur 30 Sur 0 -- -- 50
2020-11-11 15:00:00 16 16 Sur 27 Sur 0 -- -- 53
2020-11-11 14:00:00 14.5 17 Sur 24 Sur 0 -- -- 60
2020-11-11 13:00:00 9.7 14 Sur 20 Sur 0 -- -- 94
2020-11-11 12:00:00 7 13 Sur 20 Sur 0 -- -- 99
2020-11-11 11:00:00 5.1 13 Sur 19 Sur 0 -- -- 100
2020-11-11 10:00:00 4.2 12 Sur 18 Sudoeste 0 -- -- 100
2020-11-11 09:00:00 3.4 10 Sur 15 Sur 0 -- -- 100
2020-11-11 08:00:00 2.8 7 Sudoeste 16 Sur 0 -- -- 100
2020-11-11 07:00:00 2.3 6 Sudoeste 13 Sudoeste 0 -- -- 100
2020-11-11 06:00:00 1 7 Sudoeste 13 Sudoeste 0 -- -- 98
2020-11-11 05:00:00 2.2 8 Sur 12 Sur 0 -- -- 96
2020-11-11 04:00:00 2.5 7 Sudoeste 11 Sudoeste 0 -- -- 98
2020-11-11 03:00:00 1.7 0 Calma 4 Sudeste 0 -- -- 98
2020-11-11 02:00:00 2.1 2 Sudoeste 6 Sudoeste 0 -- -- 96
2020-11-11 01:00:00 3 0 Calma 6 Oeste 0 -- -- 96
2020-11-11 00:00:00 3.2 3 Sudoeste 14 Noroeste 0 -- -- 93
2020-11-10 23:00:00 5.3 11 Noroeste 14 Noroeste 0 -- -- 89
2020-11-10 22:00:00 5.6 8 Noroeste 13 Oeste 0 -- -- 89
2020-11-10 21:00:00 6.1 0 Calma 11 Noroeste 0 -- -- 88
2020-11-10 20:00:00 7.9 6 Noroeste 9 Noroeste 0 -- -- 81
2020-11-10 19:00:00 8.6 5 Noroeste 9 Noroeste 0 -- -- 77
2020-11-10 18:00:00 9.6 5 Norte 13 Nordeste 0 -- -- 75
2020-11-10 17:00:00 14.1 9 Nordeste 16 Nordeste 0 -- -- 55
2020-11-10 16:00:00 15.2 10 Nordeste 17 Nordeste 0 -- -- 52
2020-11-10 15:00:00 15.2 8 Nordeste 16 Norte 0 -- -- 57
2020-11-10 14:00:00 14.3 6 Nordeste 14 Nordeste 0 -- -- 58
2020-11-10 13:00:00 13.7 6 Nordeste 14 Norte 0 -- -- 63
2020-11-10 12:00:00 12.2 0 Calma 8 Este 0 -- -- 70
2020-11-10 11:00:00 9.8 3 Sur 7 Sudeste 0 -- -- 82
2020-11-10 10:00:00 4.9 0 Calma 4 Sudeste 0 -- -- 100
2020-11-10 09:00:00 1.1 2 Sudoeste 5 Este 0 -- -- 100
2020-11-10 08:00:00 0.7 0 Calma 3 Oeste 0 -- -- 100
2020-11-10 07:00:00 1.1 0 Calma 3 Este 0 -- -- 100
2020-11-10 06:00:00 1.1 2 Norte 5 Norte 0 -- -- 99
2020-11-10 05:00:00 1.8 0 Calma 4 Sur 0 -- -- 100
2020-11-10 04:00:00 2.6 0 Calma 4 Sur 0 -- -- 100
2020-11-10 03:00:00 3.6 0 Calma 7 Oeste 0 -- -- 98
2020-11-10 02:00:00 4.5 0 Calma 6 Oeste 0 -- -- 98
2020-11-10 01:00:00 4.9 0 Calma 4 Sudoeste 0 -- -- 97
2020-11-10 00:00:00 6.2 0 Calma 6 Noroeste 0 -- -- 94
2020-11-09 23:00:00 8.6 5 Noroeste 9 Noroeste 0 -- -- 88
2020-11-09 22:00:00 7.8 6 Noroeste 9 Noroeste 0 -- -- 88
2020-11-09 21:00:00 8.5 3 Oeste 7 Norte 0 -- -- 87
2020-11-09 20:00:00 8.5 0 Calma 13 Noroeste 0 -- -- 86
2020-11-09 19:00:00 10.5 12 Noroeste 16 Noroeste 0 -- -- 75
2020-11-09 18:00:00 11.8 10 Norte 15 Norte 0 -- -- 77
2020-11-09 17:00:00 13 7 Nordeste 15 Norte 0 -- -- 72
2020-11-09 16:00:00 14.2 9 Nordeste 18 Nordeste 0 -- -- 66
2020-11-09 15:00:00 13.7 12 Nordeste 21 Norte 0 -- -- 66
2020-11-09 14:00:00 16.1 4 Nordeste 9 Nordeste 0 -- -- 59
2020-11-09 13:00:00 14.6 3 Nordeste 10 Sudeste 0 -- -- 62
2020-11-09 12:00:00 12.3 3 Sur 10 Sur 0 -- -- 73
2020-11-09 11:00:00 11.9 4 Sur 13 Sur 0 -- -- 76
2020-11-09 10:00:00 7.9 9 Sur 14 Sur 0 -- -- 88
2020-11-09 09:00:00 4.2 4 Sudeste 8 Nordeste 0 -- -- 94
2020-11-09 08:00:00 2.8 4 Oeste 9 Oeste 0 -- -- 97
2020-11-09 07:00:00 3.1 6 Sur 14 Sudoeste 0 -- -- 96
2020-11-09 06:00:00 2.9 6 Sur 9 Sudoeste 0 -- -- 96
2020-11-09 05:00:00 3.8 5 Sur 13 Sur 0 -- -- 96
2020-11-09 04:00:00 3.6 6 Sur 9 Sur 0 -- -- 96
2020-11-09 03:00:00 2.7 0 Calma 6 Sudoeste 0 -- -- 97
2020-11-09 02:00:00 4 4 Sudoeste 10 Sudoeste 0 -- -- 94
2020-11-09 01:00:00 5 8 Sudoeste 11 Sudoeste 0 -- -- 92
2020-11-09 00:00:00 4.6 3 Sudeste 6 Sudeste 0 -- -- 96
2020-11-08 23:00:00 5.4 2 Sudeste 8 Oeste 0 -- -- 88
2020-11-08 22:00:00 6.9 6 Sur 9 Sur 0 -- -- 84
2020-11-08 21:00:00 7.1 4 Sur 9 Sur 0 -- -- 85
2020-11-08 20:00:00 8.2 4 Sur 10 Sur 0 -- -- 81
2020-11-08 19:00:00 11.1 10 Sudoeste 20 Sudoeste 0 -- -- 66
2020-11-08 18:00:00 12.3 14 Sudoeste 22 Sudoeste 0 -- -- 62
2020-11-08 17:00:00 13.9 11 Sur 27 Sur 0 -- -- 55
2020-11-08 16:00:00 16.9 14 Sudoeste 26 Sur 0 -- -- 42
2020-11-08 15:00:00 17 15 Sur 25 Sur 0 -- -- 46
2020-11-08 14:00:00 15.6 16 Sur 26 Sur 0 -- -- 54
2020-11-08 13:00:00 14.8 14 Sur 27 Sur 0 -- -- 58
2020-11-08 12:00:00 13.8 13 Sur 22 Sur 0 -- -- 61
2020-11-08 11:00:00 11.3 14 Sur 21 Sur 0 -- -- 74
2020-11-08 10:00:00 8.8 7 Sur 12 Sur 0 -- -- 83
2020-11-08 09:00:00 5.4 4 Sur 6 Sur 0 -- -- 93
2020-11-08 08:00:00 3 3 Sudoeste 4 Sudoeste 0 -- -- 99
2020-11-08 07:00:00 3.3 3 Sur 8 Sur 0 -- -- 98
2020-11-08 06:00:00 4.1 5 Sur 9 Sur 0 -- -- 98
2020-11-08 05:00:00 6.4 8 Sudoeste 15 Sudoeste 0 -- -- 84
2020-11-08 04:00:00 6.1 6 Sur 11 Sur 0 -- -- 88
2020-11-08 03:00:00 6.6 4 Sudeste 13 Oeste 0 -- -- 88
2020-11-08 02:00:00 7.9 7 Oeste 14 Noroeste 0 -- -- 82
2020-11-08 01:00:00 9.1 4 Sur 9 Sudoeste 0 -- -- 93
2020-11-08 00:00:00 9.3 5 Sudoeste 9 Sur 0 -- -- 92
2020-11-07 23:00:00 8.8 3 Sudeste 13 Sudoeste 0 -- -- 92
2020-11-07 22:00:00 9.2 5 Sur 12 Sudoeste 0 -- -- 86
2020-11-07 21:00:00 7.7 7 Sudoeste 10 Sudoeste 0 -- -- 89
2020-11-07 20:00:00 8.3 3 Este 13 Sudoeste 0 -- -- 88
2020-11-07 19:00:00 9.2 5 Sudeste 12 Sudoeste 0 -- -- 83
2020-11-07 18:00:00 10.9 5 Oeste 21 Oeste 0 -- -- 74
2020-11-07 17:00:00 13.8 13 Oeste 27 Noroeste 0 -- -- 60
2020-11-07 16:00:00 13.6 15 Sudoeste 29 Sudoeste 0 -- -- 63
2020-11-07 15:00:00 14.8 15 Sudoeste 30 Sudoeste 0 -- -- 60
2020-11-07 14:00:00 12.5 15 Sudoeste 32 Sudoeste 0 -- -- 68
2020-11-07 13:00:00 12.4 18 Sudoeste 32 Sudoeste 0 -- -- 68
2020-11-07 12:00:00 12.5 19 Sudoeste 30 Sudoeste 0 -- -- 67
2020-11-07 11:00:00 11.6 15 Sur 26 Sur 0 -- -- 81
2020-11-07 10:00:00 10.3 12 Sur 24 Sur 0 -- -- 93
2020-11-07 09:00:00 9.6 15 Sur 22 Sur 0.2 -- -- 94
2020-11-07 08:00:00 9.1 12 Sur 20 Sudoeste 0.8 -- -- 96
2020-11-07 07:00:00 9.1 6 Sur 21 Sur 1.6 -- -- 95
2020-11-07 06:00:00 9.3 7 Este 54 Sudoeste 4.8 -- -- 94
2020-11-07 05:00:00 12.9 22 Sur 34 Sur 0.2 -- -- 90
2020-11-07 04:00:00 12.1 15 Sur 33 Sur 0.4 -- -- 93
2020-11-07 03:00:00 12.9 24 Sur 36 Sur 0 -- -- 86
2020-11-07 02:00:00 12.8 22 Sur 37 Sur 0 -- -- 85
2020-11-07 01:00:00 12.9 21 Sur 34 Sur 0 -- -- 83
2020-11-07 00:00:00 13.1 23 Sur 34 Sudeste 0 -- -- 83
2020-11-06 23:00:00 12.7 15 Sur 38 Sur 0 -- -- 86
2020-11-06 22:00:00 12.6 18 Sur 29 Sur 0 -- -- 85
2020-11-06 21:00:00 12.4 14 Sur 31 Sur 0 -- -- 86
2020-11-06 20:00:00 12.6 21 Sur 38 Sur 0 -- -- 85
2020-11-06 19:00:00 12.8 23 Sur 38 Sur 0 -- -- 85
2020-11-06 18:00:00 13.3 24 Sur 45 Sudoeste 0 -- -- 82
2020-11-06 17:00:00 14.3 29 Sur 46 Sur 0 -- -- 79
2020-11-06 16:00:00 15.3 30 Sur 51 Sur 0 -- -- 74
2020-11-06 15:00:00 15.9 34 Sur 53 Sur 0 -- -- 74
2020-11-06 14:00:00 16.1 30 Sur 54 Sur 0 -- -- 73
2020-11-06 13:00:00 15.9 34 Sur 49 Sur 0 -- -- 73
2020-11-06 12:00:00 16.1 26 Sur 42 Sur 0 -- -- 74
2020-11-06 11:00:00 15.3 19 Sur 32 Sur 0 -- -- 81
2020-11-06 10:00:00 12.5 3 Sur 13 Sur 0 -- -- 91
2020-11-06 09:00:00 10.5 4 Sudeste 10 Sur 0 -- -- 94
2020-11-06 08:00:00 10.3 6 Sur 18 Sudoeste 0 -- -- 94
2020-11-06 07:00:00 9.6 10 Sudoeste 17 Sudoeste 0 -- -- 99
2020-11-06 06:00:00 9 6 Sur 13 Sudoeste 0 -- -- 98
2020-11-06 05:00:00 8.8 9 Sudoeste 13 Sudoeste 0 -- -- 99
2020-11-06 04:00:00 8.4 3 Sur 5 Oeste 0 -- -- 99
2020-11-06 03:00:00 8.1 0 Calma 4 Este 0 -- -- 100
2020-11-06 02:00:00 8.8 0 Calma 3 Sudeste 0 -- -- 98
2020-11-06 01:00:00 9.3 0 Calma 8 Sudoeste 0 -- -- 97
2020-11-06 00:00:00 8.9 2 Sur 8 Sudoeste 0 -- -- 98
2020-11-05 23:00:00 9.3 7 Sudoeste 13 Sudoeste 0 -- -- 95
2020-11-05 22:00:00 9.3 3 Oeste 6 Sudoeste 0 -- -- 97
2020-11-05 21:00:00 9.6 4 Oeste 13 Sur 1.4 -- -- 97
2020-11-05 20:00:00 9.9 11 Sur 18 Sur 2.2 -- -- 95
2020-11-05 19:00:00 9.9 3 Sudoeste 6 Sudoeste 0.6 -- -- 96
2020-11-05 18:00:00 10.2 2 Sudoeste 9 Sudoeste 0.4 -- -- 95
2020-11-05 17:00:00 10.3 6 Sudoeste 15 Sudoeste 1.4 -- -- 95
2020-11-05 16:00:00 10.4 10 Sudoeste 18 Sudoeste 0.6 -- -- 95
2020-11-05 15:00:00 10.4 15 Sudoeste 28 Sudoeste 1.2 -- -- 95
2020-11-05 14:00:00 11.1 15 Sudoeste 28 Sur 0.2 -- -- 92
2020-11-05 13:00:00 12.2 17 Sur 31 Sur 0.2 -- -- 81
2020-11-05 12:00:00 12 8 Sur 13 Sur 0 -- -- 82
2020-11-05 11:00:00 10.8 6 Sur 12 Sur 0 -- -- 84
2020-11-05 10:00:00 7.1 4 Sur 8 Sur 0 -- -- 97
2020-11-05 09:00:00 4.7 2 Sudoeste 8 Sudoeste 0 -- -- 100
2020-11-05 08:00:00 3.8 0 Calma 5 Oeste 0 -- -- 100
2020-11-05 07:00:00 3.6 3 Sur 5 Este 0 -- -- 99
2020-11-05 06:00:00 4.1 0 Calma 8 Noroeste 0 -- -- 99
2020-11-05 05:00:00 4.2 4 Nordeste 9 Este 0 -- -- 99
2020-11-05 04:00:00 5.1 2 Norte 8 Norte 0 -- -- 98
2020-11-05 03:00:00 5.1 5 Norte 8 Norte 0 -- -- 97
2020-11-05 02:00:00 6.6 5 Norte 9 Noroeste 0 -- -- 94
2020-11-05 01:00:00 6.1 6 Noroeste 9 Noroeste 0 -- -- 95
2020-11-05 00:00:00 6.5 5 Noroeste 12 Noroeste 0 -- -- 93
2020-11-04 23:00:00 6.6 4 Noroeste 8 Noroeste 0 -- -- 92
2020-11-04 22:00:00 6.3 7 Norte 13 Norte 0 -- -- 92
2020-11-04 21:00:00 6.3 7 Noroeste 13 Norte 0 -- -- 93
2020-11-04 20:00:00 6 10 Norte 19 Norte 0 -- -- 93
2020-11-04 19:00:00 5.9 12 Norte 17 Norte 0.2 -- -- 95
2020-11-04 18:00:00 5.7 8 Norte 15 Nordeste 0.4 -- -- 98
2020-11-04 17:00:00 5.5 10 Norte 15 Norte 0.8 -- -- 97
2020-11-04 16:00:00 5.4 9 Norte 13 Norte 0.2 -- -- 94
2020-11-04 15:00:00 5.6 8 Nordeste 12 Nordeste 1.4 -- -- 94
2020-11-04 14:00:00 5.5 8 Nordeste 12 Nordeste 0.8 -- -- 93
2020-11-04 13:00:00 5.2 6 Norte 16 Norte 0.6 -- -- 91
2020-11-04 12:00:00 5 11 Norte 15 Norte 0.2 -- -- 88
2020-11-04 11:00:00 5.1 11 Norte 21 Norte 0 -- -- 88
2020-11-04 10:00:00 4.5 15 Norte 20 Norte 0.2 -- -- 92
2020-11-04 09:00:00 4.2 14 Norte 20 Norte 0 -- -- 90
2020-11-04 08:00:00 4.1 13 Norte 19 Norte 0.2 -- -- 90
2020-11-04 07:00:00 4.3 11 Norte 22 Norte 0.2 -- -- 91
2020-11-04 06:00:00 4.6 12 Norte 24 Noroeste 0 -- -- 93
2020-11-04 05:00:00 4.7 13 Norte 21 Norte 0 -- -- 89
2020-11-04 04:00:00 4.6 16 Norte 26 Norte 0.2 -- -- 89
2020-11-04 03:00:00 4.8 17 Norte 24 Norte 0.8 -- -- 92
2020-11-04 02:00:00 5.2 18 Norte 29 Norte 0.6 -- -- 92
2020-11-04 01:00:00 5.7 15 Norte 24 Norte 0 -- -- 91
2020-11-04 00:00:00 6.2 10 Norte 21 Norte 0.6 -- -- 93
2020-11-03 23:00:00 6.4 10 Norte 22 Norte 0.8 -- -- 94
2020-11-03 22:00:00 7.1 11 Norte 22 Norte 0.2 -- -- 91
2020-11-03 21:00:00 7 14 Norte 22 Norte 0.2 -- -- 93
2020-11-03 20:00:00 7.1 13 Norte 22 Norte 0.4 -- -- 91
2020-11-03 19:00:00 7.2 15 Norte 30 Norte 0 -- -- 89
2020-11-03 18:00:00 7.3 23 Norte 34 Norte 0 -- -- 89
2020-11-03 17:00:00 8.3 20 Norte 33 Norte 0.2 -- -- 88
2020-11-03 16:00:00 8.7 23 Norte 40 Norte 0.6 -- -- 90
2020-11-03 15:00:00 9.4 28 Norte 45 Norte 0.2 -- -- 89
2020-11-03 14:00:00 11.2 21 Norte 31 Norte 0 -- -- 82
2020-11-03 13:00:00 10.6 14 Norte 37 Norte 0 -- -- 85
2020-11-03 12:00:00 10.8 29 Norte 39 Norte 0 -- -- 84
2020-11-03 11:00:00 11.3 23 Norte 33 Norte 0 -- -- 87
2020-11-03 10:00:00 12 18 Norte 25 Norte 0 -- -- 88
2020-11-03 09:00:00 9.8 4 Sudoeste 7 Oeste 0 -- -- 93
2020-11-03 08:00:00 9.4 5 Norte 9 Norte 0 -- -- 95
2020-11-03 07:00:00 9.2 0 Calma 8 Nordeste 0.2 -- -- 95
2020-11-03 06:00:00 9.5 3 Nordeste 5 Este 0.2 -- -- 93
2020-11-03 05:00:00 9.6 0 Calma 6 Norte 0 -- -- 88
2020-11-03 04:00:00 10 0 Calma 3 Sudeste 0 -- -- 88
2020-11-03 03:00:00 10.2 0 Calma 3 Sur 0 -- -- 85
2020-11-03 02:00:00 12 4 Sudoeste 8 Sudoeste 0 -- -- 78
2020-11-03 01:00:00 11.8 4 Sudoeste 6 Sudoeste 0 -- -- 78
2020-11-03 00:00:00 11.8 2 Nordeste 10 Norte 0 -- -- 78
2020-11-02 23:00:00 13 6 Norte 14 Norte 0 -- -- 75
2020-11-02 22:00:00 13.1 12 Noroeste 15 Norte 0 -- -- 74
2020-11-02 21:00:00 13.5 11 Norte 20 Norte 0 -- -- 72
2020-11-02 20:00:00 15.8 12 Norte 23 Norte 0 -- -- 64
2020-11-02 19:00:00 16.4 13 Norte 24 Norte 0 -- -- 60
2020-11-02 18:00:00 17.2 10 Norte 13 Norte 0 -- -- 49
2020-11-02 17:00:00 22.6 7 Norte 17 Nordeste 0 -- -- 36
2020-11-02 16:00:00 23.7 10 Norte 18 Norte 0 -- -- 33
2020-11-02 15:00:00 24.3 10 Nordeste 19 Nordeste 0 -- -- 27
2020-11-02 14:00:00 23.8 5 Sudeste 11 Nordeste 0 -- -- 24
2020-11-02 13:00:00 23.6 3 Sudeste 13 Sudeste 0 -- -- 24
2020-11-02 12:00:00 20.7 5 Sur 14 Sur 0 -- -- 31
2020-11-02 11:00:00 16.5 9 Sur 16 Sur 0 -- -- 42
2020-11-02 10:00:00 11.6 9 Sur 12 Sur 0 -- -- 52
2020-11-02 09:00:00 7.4 6 Sur 11 Sur 0 -- -- 61
2020-11-02 08:00:00 3.4 6 Sudoeste 10 Sudoeste 0 -- -- 73
2020-11-02 07:00:00 3.9 7 Sur 11 Sur 0 -- -- 71
2020-11-02 06:00:00 2.9 5 Sur 9 Sur 0 -- -- 74
2020-11-02 05:00:00 1.9 3 Sudoeste 6 Sur 0 -- -- 76
2020-11-02 04:00:00 3.2 0 Calma 5 Noroeste 0 -- -- 75
2020-11-02 03:00:00 3.3 4 Sudoeste 6 Sur 0 -- -- 75
2020-11-02 02:00:00 4.6 0 Calma 8 Sur 0 -- -- 72
2020-11-02 01:00:00 6.1 3 Sudoeste 9 Sur 0 -- -- 65
2020-11-02 00:00:00 5.8 0 Calma 6 Sur 0 -- -- 69
2020-11-01 23:00:00 7.2 4 Sur 5 Sur 0 -- -- 67
2020-11-01 22:00:00 8.2 2 Sur 9 Oeste 0 -- -- 64
2020-11-01 21:00:00 10.5 0 Calma 8 Noroeste 0 -- -- 60
2020-11-01 20:00:00 12.4 4 Norte 8 Norte 0 -- -- 52
2020-11-01 19:00:00 13.9 0 Calma 12 Noroeste 0 -- -- 47
2020-11-01 18:00:00 16.8 3 Norte 9 Norte 0 -- -- 39
2020-11-01 17:00:00 21.7 6 Nordeste 15 Nordeste 0 -- -- 31
2020-11-01 16:00:00 23 7 Norte 16 Norte 0 -- -- 31
2020-11-01 15:00:00 22.8 7 Norte 18 Nordeste 0 -- -- 33
2020-11-01 14:00:00 22.7 5 Este 12 Este 0 -- -- 34
2020-11-01 13:00:00 21.1 4 Norte 8 Norte 0 -- -- 36
2020-11-01 12:00:00 19.7 2 Este 7 Sudeste 0 -- -- 43
2020-11-01 11:00:00 16.1 0 Calma 6 Sudoeste 0 -- -- 46
2020-11-01 10:00:00 11.1 3 Sudoeste 6 Sudoeste 0 -- -- 61
2020-11-01 09:00:00 6.1 0 Calma 6 Norte 0 -- -- 76
2020-11-01 08:00:00 2.8 3 Oeste 11 Sur 0 -- -- 90
2020-11-01 07:00:00 2.8 6 Sur 10 Sur 0 -- -- 90
2020-11-01 06:00:00 2.9 4 Sur 10 Sur 0 -- -- 85
2020-11-01 05:00:00 2.8 2 Sudoeste 5 Nordeste 0 -- -- 87
2020-11-01 04:00:00 3.1 0 Calma 7 Sudoeste 0 -- -- 85
2020-11-01 03:00:00 3.5 0 Calma 6 Sur 0 -- -- 85
2020-11-01 02:00:00 4.8 0 Calma 4 Sur 0 -- -- 81
2020-11-01 01:00:00 5.7 4 Sur 6 Sur 0 -- -- 78
2020-11-01 00:00:00 6.1 0 Calma 7 Sur 0 -- -- 78
2020-10-31 23:00:00 7.2 2 Sudoeste 7 Sur 0 -- -- 70
2020-10-31 22:00:00 8.9 2 Noroeste 11 Oeste 0 -- -- 66
2020-10-31 21:00:00 11 2 Oeste 12 Noroeste 0 -- -- 60
2020-10-31 20:00:00 13.6 7 Noroeste 18 Norte 0 -- -- 51
2020-10-31 19:00:00 15.2 7 Noroeste 15 Norte 0 -- -- 42
2020-10-31 18:00:00 18.4 8 Nordeste 20 Nordeste 0 -- -- 38
2020-10-31 17:00:00 22.1 11 Nordeste 21 Nordeste 0 -- -- 34
2020-10-31 16:00:00 23.3 8 Este 17 Nordeste 0 -- -- 32
2020-10-31 15:00:00 23.6 10 Nordeste 19 Nordeste 0 -- -- 31
2020-10-31 14:00:00 23 10 Nordeste 22 Norte 0 -- -- 32
2020-10-31 13:00:00 22.1 10 Nordeste 17 Nordeste 0 -- -- 32
2020-10-31 12:00:00 19.9 2 Este 9 Sur 0 -- -- 33
2020-10-31 11:00:00 15.7 5 Sur 10 Sur 0 -- -- 40
2020-10-31 10:00:00 11.1 6 Sur 9 Sur 0 -- -- 47
2020-10-31 09:00:00 6.2 6 Sudoeste 11 Sur 0 -- -- 64
2020-10-31 08:00:00 0.8 4 Sur 9 Sur 0 -- -- 80
2020-10-31 07:00:00 0.7 2 Sur 6 Sudoeste 0 -- -- 83
2020-10-31 06:00:00 0.3 0 Calma 8 Sur 0 -- -- 83
2020-10-31 05:00:00 2.4 6 Sur 8 Sur 0 -- -- 77
2020-10-31 04:00:00 0.9 0 Calma 5 Sur 0 -- -- 78
2020-10-31 03:00:00 2.2 2 Sudoeste 4 Oeste 0 -- -- 75
2020-10-31 02:00:00 2.2 2 Noroeste 4 Noroeste 0 -- -- 75
2020-10-31 01:00:00 4.3 0 Calma 7 Oeste 0 -- -- 68
2020-10-31 00:00:00 4.5 3 Sur 5 Sur 0 -- -- 64
2020-10-30 23:00:00 6.5 3 Noroeste 8 Noroeste 0 -- -- 61
2020-10-30 22:00:00 7.7 0 Calma 7 Noroeste 0 -- -- 56
2020-10-30 21:00:00 9.6 0 Calma 16 Norte 0 -- -- 54
2020-10-30 20:00:00 14.1 13 Norte 21 Noroeste 0 -- -- 46
2020-10-30 19:00:00 14.1 12 Noroeste 16 Norte 0 -- -- 31
2020-10-30 18:00:00 16.8 7 Noroeste 14 Nordeste 0 -- -- 22
2020-10-30 17:00:00 24.6 3 Sudeste 9 Sudoeste 0 -- -- 11
2020-10-30 16:00:00 25.1 4 Sur 13 Sudoeste 0 -- -- 12
2020-10-30 15:00:00 24.8 5 Sur 12 Sur 0 -- -- 11
2020-10-30 14:00:00 23.8 6 Sur 15 Sudoeste 0 -- -- 12
2020-10-30 13:00:00 21.9 5 Sur 10 Sur 0 -- -- 13
2020-10-30 12:00:00 18.3 6 Sur 13 Sur 0 -- -- 32
2020-10-30 11:00:00 13.9 9 Sur 13 Sur 0 -- -- 45
2020-10-30 10:00:00 8.3 7 Sur 11 Sur 0 -- -- 49
2020-10-30 09:00:00 3.5 4 Sur 7 Sur 0 -- -- 67
2020-10-30 08:00:00 -1.3 3 Sur 9 Sur 0 -- -- 81
2020-10-30 07:00:00 -0.3 5 Sudoeste 8 Sudoeste 0 -- -- 83
2020-10-30 06:00:00 0.3 3 Sur 7 Sudeste 0 -- -- 89
2020-10-30 05:00:00 0.6 0 Calma 7 Sudoeste 0 -- -- 94
2020-10-30 04:00:00 1.5 3 Sudoeste 5 Sur 0 -- -- 94
2020-10-30 03:00:00 1.4 0 Calma 4 Sudeste 0 -- -- 94
2020-10-30 02:00:00 3.2 0 Calma 8 Oeste 0 -- -- 87
2020-10-30 01:00:00 4.4 4 Oeste 7 Oeste 0 -- -- 90
2020-10-30 00:00:00 5.7 2 Sudoeste 11 Noroeste 0 -- -- 85
2020-10-29 23:00:00 6 4 Noroeste 8 Noroeste 0 -- -- 84
2020-10-29 22:00:00 7.3 3 Este 9 Noroeste 0 -- -- 81
2020-10-29 21:00:00 8.8 2 Noroeste 10 Noroeste 0 -- -- 76
2020-10-29 20:00:00 11.6 9 Noroeste 14 Noroeste 0 -- -- 66
2020-10-29 19:00:00 12.7 5 Noroeste 9 Noroeste 0 -- -- 61
2020-10-29 18:00:00 16.2 0 Calma 7 Norte 0 -- -- 48
2020-10-29 17:00:00 21.7 0 Calma 8 Este 0 -- -- 36
2020-10-29 16:00:00 22.5 3 Norte 10 Sudeste 0 -- -- 35
2020-10-29 15:00:00 21.5 5 Sur 15 Sur 0 -- -- 39
2020-10-29 14:00:00 19.4 8 Sur 17 Sur 0 -- -- 46
2020-10-29 13:00:00 16.9 10 Sur 23 Sur 0 -- -- 57
2020-10-29 12:00:00 14.2 15 Sur 26 Sur 0 -- -- 68
2020-10-29 11:00:00 10.8 14 Sudoeste 27 Sudoeste 0 -- -- 81
2020-10-29 10:00:00 9.6 4 Oeste 9 Noroeste 0 -- -- 87
2020-10-29 09:00:00 8.8 0 Calma 5 Noroeste 0 -- -- 90
2020-10-29 08:00:00 7.8 2 Este 5 Sur 0 -- -- 91
2020-10-29 07:00:00 7.4 0 Calma 6 Sur 0 -- -- 92
2020-10-29 06:00:00 7.4 5 Sur 9 Sudoeste 0 -- -- 93
2020-10-29 05:00:00 6.2 5 Sudoeste 10 Sur 0 -- -- 97
2020-10-29 04:00:00 3.2 2 Sudoeste 6 Noroeste 0 -- -- 96
2020-10-29 03:00:00 4.1 2 Oeste 6 Oeste 0 -- -- 97
2020-10-29 02:00:00 4.2 0 Calma 6 Noroeste 0 -- -- 94
2020-10-29 01:00:00 5.6 8 Norte 13 Noroeste 0 -- -- 91
2020-10-29 00:00:00 5.4 0 Calma 12 Noroeste 0 -- -- 93
2020-10-28 23:00:00 5.9 4 Oeste 7 Sudoeste 0 -- -- 93
2020-10-28 22:00:00 7 3 Este 10 Noroeste 0 -- -- 92
2020-10-28 21:00:00 8.9 4 Norte 15 Nordeste 0 -- -- 87
2020-10-28 20:00:00 10.2 8 Nordeste 13 Noroeste 0 -- -- 83
2020-10-28 19:00:00 11.3 11 Noroeste 13 Noroeste 0 -- -- 70
2020-10-28 18:00:00 14.5 10 Noroeste 25 Noroeste 0 -- -- 58
2020-10-28 17:00:00 17.6 18 Norte 30 Norte 0 -- -- 50
2020-10-28 16:00:00 19.1 14 Noroeste 30 Norte 0 -- -- 45
2020-10-28 15:00:00 19 20 Norte 34 Noroeste 0 -- -- 47
2020-10-28 14:00:00 18.9 22 Norte 35 Norte 0 -- -- 48
2020-10-28 13:00:00 18.5 9 Nordeste 19 Este 0 -- -- 50
2020-10-28 12:00:00 17.5 4 Sudoeste 13 Sur 0 -- -- 52
2020-10-28 11:00:00 16 6 Sudeste 15 Sur 0 -- -- 55
2020-10-28 10:00:00 11.7 9 Sur 13 Sur 0 -- -- 65
2020-10-28 09:00:00 6.5 7 Sur 11 Sur 0 -- -- 79
2020-10-28 08:00:00 2.3 6 Sudoeste 9 Sudoeste 0 -- -- 93
2020-10-28 07:00:00 1.6 2 Sur 5 Sur 0 -- -- 94
2020-10-28 06:00:00 2.3 4 Sur 9 Sudoeste 0 -- -- 90
2020-10-28 05:00:00 2.8 8 Sudoeste 13 Sur 0 -- -- 90
2020-10-28 04:00:00 2.9 2 Sur 6 Sur 0 -- -- 84
2020-10-28 03:00:00 2 2 Noroeste 6 Oeste 0 -- -- 89
2020-10-28 02:00:00 3.2 0 Calma 5 Sur 0 -- -- 85
2020-10-28 01:00:00 3.3 2 Sudoeste 7 Noroeste 0 -- -- 83
2020-10-28 00:00:00 5.1 4 Noroeste 12 Noroeste 0 -- -- 82
2020-10-27 23:00:00 4.8 3 Oeste 8 Noroeste 0 -- -- 80
2020-10-27 22:00:00 5.1 0 Calma 10 Este 0 -- -- 75
2020-10-27 21:00:00 7.8 9 Noroeste 16 Noroeste 0 -- -- 68
2020-10-27 20:00:00 8.4 10 Noroeste 21 Norte 0 -- -- 64
2020-10-27 19:00:00 9.9 16 Norte 25 Norte 0 -- -- 58
2020-10-27 18:00:00 11.9 16 Norte 26 Norte 0 -- -- 50
2020-10-27 17:00:00 14.7 20 Norte 28 Norte 0 -- -- 42
2020-10-27 16:00:00 15.6 19 Norte 31 Norte 0 -- -- 37
2020-10-27 15:00:00 16.3 16 Norte 26 Norte 0 -- -- 35
2020-10-27 14:00:00 14.9 19 Norte 30 Noroeste 0 -- -- 37
2020-10-27 13:00:00 12.7 3 Norte 12 Norte 0 -- -- 43
2020-10-27 12:00:00 8.7 4 Sudeste 11 Sudeste 0 -- -- 60
2020-10-27 11:00:00 7.1 3 Nordeste 6 Este 0 -- -- 66
2020-10-27 10:00:00 5.8 5 Sur 10 Sur 0 -- -- 70
2020-10-27 09:00:00 1.6 2 Sudeste 9 Sudeste 0 -- -- 81
2020-10-27 08:00:00 -0.8 6 Sur 9 Sur 0 -- -- 90
2020-10-27 07:00:00 -2 3 Sur 6 Sudoeste 0 -- -- 90
2020-10-27 06:00:00 -1.3 0 Calma 6 Sur 0 -- -- 87
2020-10-27 05:00:00 -1.1 4 Sur 6 Sur 0 -- -- 84
2020-10-27 04:00:00 -0.8 3 Norte 9 Noroeste 0 -- -- 84
2020-10-27 03:00:00 0.5 4 Sudeste 8 Sudeste 0 -- -- 83
2020-10-27 02:00:00 0.2 3 Sur 11 Este 0 -- -- 79
2020-10-27 01:00:00 1.6 0 Calma 9 Este 0 -- -- 75
2020-10-27 00:00:00 3.1 6 Norte 15 Noroeste 0 -- -- 70
2020-10-26 23:00:00 5 12 Noroeste 26 Noroeste 0 -- -- 63
2020-10-26 22:00:00 4.5 8 Noroeste 15 Norte 0 -- -- 68
2020-10-26 21:00:00 3.1 3 Noroeste 9 Norte 0 -- -- 72
2020-10-26 20:00:00 4.4 0 Calma 17 Norte 0 -- -- 66
2020-10-26 19:00:00 5.6 6 Norte 32 Noroeste 0 -- -- 61
2020-10-26 18:00:00 8.3 26 Noroeste 40 Norte 0 -- -- 51
2020-10-26 17:00:00 10 26 Norte 45 Norte 0 -- -- 48
2020-10-26 16:00:00 10.6 33 Norte 45 Norte 0 -- -- 46
2020-10-26 15:00:00 10.4 28 Norte 44 Noroeste 0 -- -- 47
2020-10-26 14:00:00 10 32 Noroeste 53 Noroeste 0 -- -- 48
2020-10-26 13:00:00 9.7 35 Noroeste 46 Noroeste 0 -- -- 53
2020-10-26 12:00:00 9.4 32 Norte 51 Noroeste 0 -- -- 53
2020-10-26 11:00:00 7.9 34 Norte 46 Norte 0 -- -- 61
2020-10-26 10:00:00 6.4 25 Norte 42 Norte 0 -- -- 76
2020-10-26 09:00:00 4.2 12 Nordeste 19 Nordeste 0 -- -- 87
2020-10-26 08:00:00 2.8 8 Norte 15 Norte 0 -- -- 90
2020-10-26 07:00:00 4.1 6 Noroeste 25 Norte 0 -- -- 90
2020-10-26 06:00:00 4.8 18 Norte 26 Norte 0 -- -- 85
2020-10-26 05:00:00 5.7 8 Nordeste 20 Norte 0 -- -- 83
2020-10-26 04:00:00 5.7 10 Norte 26 Norte 0 -- -- 80
2020-10-26 03:00:00 6.1 10 Norte 28 Noroeste 0 -- -- 80
2020-10-26 02:00:00 7.5 13 Noroeste 24 Nordeste 0 -- -- 76
2020-10-26 01:00:00 7.7 15 Norte 27 Norte 0 -- -- 89
2020-10-26 00:00:00 9.6 17 Noroeste 35 Noroeste 0 -- -- 77
2020-10-25 23:00:00 11.4 10 Noroeste 26 Sudoeste 0 -- -- 69
2020-10-25 22:00:00 12.2 15 Sudoeste 33 Sur 0 -- -- 69
2020-10-25 21:00:00 12.5 22 Sudoeste 36 Sur 0 -- -- 68
2020-10-25 20:00:00 13 21 Sudoeste 31 Sudoeste 0 -- -- 67
2020-10-25 19:00:00 12.5 19 Sudoeste 32 Sudoeste 0 -- -- 66
2020-10-25 18:00:00 13.3 18 Sudoeste 32 Oeste 0 -- -- 62
2020-10-25 17:00:00 14.7 21 Sudoeste 38 Sudoeste 0 -- -- 55
2020-10-25 16:00:00 15.7 19 Sudoeste 36 Oeste 0 -- -- 45
2020-10-25 15:00:00 16.6 19 Sudoeste 30 Sudoeste 0 -- -- 43
2020-10-25 14:00:00 16.2 23 Sudoeste 41 Sudoeste 0 -- -- 44
2020-10-25 13:00:00 16.1 18 Sudoeste 31 Sudoeste 0 -- -- 50
2020-10-25 12:00:00 15.4 17 Oeste 36 Noroeste 0 -- -- 50
2020-10-25 11:00:00 15.1 8 Oeste 23 Oeste 0 -- -- 53
2020-10-25 10:00:00 11.8 2 Sudeste 10 Sudeste 0 -- -- 63
2020-10-25 09:00:00 7.1 5 Sur 14 Sudeste 0 -- -- 82
2020-10-25 08:00:00 4.3 5 Este 17 Sur 0 -- -- 90
2020-10-25 07:00:00 3.1 8 Sur 13 Sur 0 -- -- 91
2020-10-25 06:00:00 3.1 2 Sudoeste 13 Sur 0 -- -- 89
2020-10-25 05:00:00 3 6 Sur 12 Sur 0 -- -- 93
2020-10-25 04:00:00 2.5 3 Sur 10 Noroeste 0 -- -- 90
2020-10-25 03:00:00 3 3 Nordeste 11 Sur 0 -- -- 90
2020-10-25 02:00:00 3.7 3 Sur 8 Sur 0 -- -- 88
2020-10-25 01:00:00 5.4 0 Calma 9 Sur 0 -- -- 84
2020-10-25 00:00:00 7 2 Este 14 Sudoeste 0 -- -- 77